createdAt,value
2023-05-11T00:00:11.213Z,74.77
2023-05-11T00:02:40.325Z,75.76
2023-05-11T00:05:11.414Z,75.72
2023-05-11T00:07:40.187Z,75.92
2023-05-11T00:10:10.608Z,76.20
2023-05-11T00:12:39.362Z,76.93
2023-05-11T00:15:09.637Z,77.65
2023-05-11T00:17:38.377Z,77.66
2023-05-11T00:20:08.974Z,77.97
2023-05-11T00:22:39.309Z,77.42
2023-05-11T00:25:09.118Z,77.01
2023-05-11T00:27:37.778Z,77.15
2023-05-11T00:30:08.422Z,77.58
2023-05-11T00:32:37.120Z,77.73
2023-05-11T00:35:06.940Z,78.30
2023-05-11T00:37:35.674Z,77.91
2023-05-11T00:40:07.069Z,78.09
2023-05-11T00:42:36.216Z,77.49
2023-05-11T00:45:06.150Z,76.72
2023-05-11T00:47:34.975Z,77.16
2023-05-11T00:50:03.928Z,77.33
2023-05-11T00:52:32.712Z,76.81
2023-05-11T00:55:01.674Z,76.71
2023-05-11T00:57:33.401Z,75.91
2023-05-11T01:00:04.412Z,76.24
2023-05-11T01:02:33.518Z,76.17
2023-05-11T01:05:02.763Z,76.87
2023-05-11T01:07:39.777Z,76.46
2023-05-11T01:10:20.926Z,76.06
2023-05-11T01:13:03.901Z,75.95
2023-05-11T01:15:42.380Z,75.61
2023-05-11T01:18:25.315Z,76.49
2023-05-11T01:20:59.738Z,76.16
2023-05-11T01:24:16.716Z,75.80
2023-05-11T01:27:08.118Z,76.82
2023-05-11T01:30:14.787Z,76.35
2023-05-11T01:32:47.520Z,77.37
2023-05-11T01:35:22.208Z,76.89
2023-05-11T01:37:55.986Z,76.59
2023-05-11T01:40:29.986Z,76.64
2023-05-11T01:43:05.495Z,76.04
2023-05-11T01:45:40.503Z,76.03
2023-05-11T01:48:18.513Z,76.08
2023-05-11T01:50:51.077Z,75.86
2023-05-11T01:53:22.768Z,76.99
2023-05-11T01:55:53.929Z,76.12
2023-05-11T01:58:25.870Z,76.72
2023-05-11T02:00:55.779Z,76.21
2023-05-11T02:03:29.678Z,76.27
2023-05-11T02:06:02.010Z,76.35
2023-05-11T02:08:33.804Z,76.30
2023-05-11T02:11:05.324Z,75.91
2023-05-11T02:13:37.613Z,76.17
2023-05-11T02:16:10.315Z,75.93
2023-05-11T02:18:43.669Z,76.22
2023-05-11T02:21:16.764Z,76.18
2023-05-11T02:23:49.800Z,75.45
2023-05-11T02:26:18.876Z,75.42
2023-05-11T02:28:47.728Z,75.31
2023-05-11T02:31:26.365Z,75.67
2023-05-11T02:34:04.518Z,75.94
2023-05-11T02:36:38.849Z,76.87
2023-05-11T02:39:13.759Z,76.95
2023-05-11T02:41:47.716Z,77.00
2023-05-11T02:44:21.328Z,76.57
2023-05-11T02:46:52.777Z,76.90
2023-05-11T02:49:26.673Z,76.21
2023-05-11T02:51:58.818Z,75.90
2023-05-11T02:54:30.268Z,75.48
2023-05-11T02:56:59.868Z,75.68
2023-05-11T02:59:29.700Z,76.30
2023-05-11T03:02:00.110Z,77.10
2023-05-11T03:04:30.718Z,77.93
2023-05-11T03:06:59.447Z,78.12
2023-05-11T03:09:28.262Z,76.96
2023-05-11T03:11:57.871Z,77.00
2023-05-11T03:14:27.896Z,77.18
2023-05-11T03:17:00.524Z,76.72
2023-05-11T03:19:32.236Z,76.91
2023-05-11T03:22:02.237Z,76.95
2023-05-11T03:24:32.589Z,76.64
2023-05-11T03:27:03.882Z,76.64
2023-05-11T03:29:38.488Z,76.82
2023-05-11T03:32:07.687Z,77.26
2023-05-11T03:34:40.976Z,77.18
2023-05-11T03:37:14.629Z,77.19
2023-05-11T03:39:49.157Z,77.18
2023-05-11T03:42:20.914Z,76.63
2023-05-11T03:44:55.956Z,76.42
2023-05-11T03:47:27.096Z,76.50
2023-05-11T03:50:00.064Z,76.74
2023-05-11T03:52:29.613Z,76.98
2023-05-11T03:54:58.661Z,76.89
2023-05-11T03:57:28.357Z,77.07
2023-05-11T03:59:57.666Z,77.07
2023-05-11T04:02:30.410Z,77.30
2023-05-11T04:05:01.705Z,77.37
2023-05-11T04:07:32.869Z,77.51
2023-05-11T04:10:01.744Z,77.17
2023-05-11T04:12:30.571Z,77.27
2023-05-11T04:14:59.406Z,77.50
2023-05-11T04:17:28.546Z,77.28
2023-05-11T04:19:57.475Z,77.53
2023-05-11T04:22:27.760Z,77.57
2023-05-11T04:24:56.644Z,77.70
2023-05-11T04:27:25.470Z,77.80
2023-05-11T04:29:54.210Z,77.88
2023-05-11T04:32:23.626Z,77.89
2023-05-11T04:34:52.733Z,78.19
2023-05-11T04:37:24.518Z,78.51
2023-05-11T04:39:55.835Z,78.38
2023-05-11T04:42:24.788Z,78.58
2023-05-11T04:44:56.680Z,79.02
2023-05-11T04:47:25.464Z,78.96
2023-05-11T04:49:54.287Z,79.11
2023-05-11T04:52:22.998Z,79.46
2023-05-11T04:54:53.110Z,79.63
2023-05-11T04:57:23.286Z,79.58
2023-05-11T04:59:52.095Z,79.97
2023-05-11T05:02:20.826Z,79.81
2023-05-11T05:04:49.547Z,79.71
2023-05-11T05:07:18.290Z,79.71
2023-05-11T05:09:47.431Z,79.76
2023-05-11T05:12:17.228Z,79.42
2023-05-11T05:14:47.493Z,78.58
2023-05-11T05:17:16.346Z,77.36
2023-05-11T05:19:45.111Z,76.95
2023-05-11T05:22:13.909Z,76.44
2023-05-11T05:24:43.190Z,75.95
2023-05-11T05:27:11.857Z,76.48
2023-05-11T05:29:40.968Z,75.86
2023-05-11T05:32:12.344Z,75.86
2023-05-11T05:34:41.377Z,75.69
2023-05-11T05:37:10.237Z,74.98
2023-05-11T05:39:38.899Z,74.48
2023-05-11T05:42:08.360Z,70.99
2023-05-11T05:44:37.502Z,68.50
2023-05-11T05:47:07.301Z,68.52
2023-05-11T05:49:39.498Z,67.46
2023-05-11T05:52:10.852Z,67.49
2023-05-11T05:54:40.664Z,68.22
2023-05-11T05:57:09.436Z,67.18
2023-05-11T05:59:38.732Z,68.22
2023-05-11T06:02:07.783Z,68.03
2023-05-11T06:04:38.166Z,67.83
2023-05-11T06:07:06.905Z,68.40
2023-05-11T06:09:39.043Z,67.27
2023-05-11T06:12:09.368Z,65.56
2023-05-11T06:14:41.901Z,64.44
2023-05-11T06:17:10.968Z,62.58
2023-05-11T06:19:41.384Z,62.59
2023-05-11T06:22:11.281Z,62.50
2023-05-11T06:24:40.284Z,62.47
2023-05-11T06:27:09.139Z,61.43
2023-05-11T06:29:38.264Z,61.14
2023-05-11T06:32:07.980Z,61.48
2023-05-11T06:34:39.385Z,60.15
2023-05-11T06:37:09.639Z,59.58
2023-05-11T06:39:38.704Z,59.49
2023-05-11T06:42:10.318Z,59.83
2023-05-11T06:44:39.829Z,59.76
2023-05-11T06:47:09.164Z,59.71
2023-05-11T06:49:37.822Z,59.11
2023-05-11T06:52:08.972Z,59.22
2023-05-11T06:54:38.207Z,58.44
2023-05-11T06:57:06.981Z,57.80
2023-05-11T06:59:35.651Z,58.36
2023-05-11T07:02:04.337Z,58.31
2023-05-11T07:04:33.076Z,58.68
2023-05-11T07:07:01.897Z,57.50
2023-05-11T07:09:32.041Z,58.62
2023-05-11T07:12:00.806Z,58.89
2023-05-11T07:14:29.604Z,57.77
2023-05-11T07:16:58.274Z,57.35
2023-05-11T07:19:27.249Z,57.42
2023-05-11T07:21:56.292Z,58.24
2023-05-11T07:24:24.989Z,57.98
2023-05-11T07:26:55.859Z,57.82
2023-05-11T07:29:24.515Z,56.67
2023-05-11T07:31:53.298Z,56.89
2023-05-11T07:34:22.044Z,56.44
2023-05-11T07:36:50.890Z,56.18
2023-05-11T07:39:19.586Z,56.65
2023-05-11T07:41:48.315Z,56.34
2023-05-11T07:44:18.996Z,55.87
2023-05-11T07:46:47.730Z,56.65
2023-05-11T07:49:22.673Z,55.84
2023-05-11T07:51:56.884Z,55.21
2023-05-11T07:54:26.260Z,54.48
2023-05-11T07:56:55.034Z,55.50
2023-05-11T07:59:28.504Z,54.53
2023-05-11T08:01:57.313Z,54.64
2023-05-11T08:04:28.134Z,52.73
2023-05-11T08:06:56.972Z,53.50
2023-05-11T08:09:25.789Z,53.00
2023-05-11T08:11:56.591Z,51.25
2023-05-11T08:14:27.068Z,51.46
2023-05-11T08:16:55.873Z,51.64
2023-05-11T08:19:24.500Z,51.15
2023-05-11T08:21:53.628Z,51.12
2023-05-11T08:24:22.339Z,51.77
2023-05-11T08:26:50.986Z,51.63
2023-05-11T08:29:19.714Z,50.62
2023-05-11T08:31:51.593Z,49.16
2023-05-11T08:34:20.543Z,49.55
2023-05-11T08:36:49.535Z,48.92
2023-05-11T08:39:32.868Z,49.73
2023-05-11T08:42:08.583Z,48.13
2023-05-11T08:44:39.844Z,50.22
2023-05-11T08:47:22.790Z,48.04
2023-05-11T08:49:53.610Z,46.16
2023-05-11T08:52:22.597Z,46.30
2023-05-11T08:54:51.361Z,46.91
2023-05-11T08:57:20.680Z,45.90
2023-05-11T08:59:52.039Z,45.82
2023-05-11T09:02:22.176Z,44.97
2023-05-11T09:04:52.989Z,43.25
2023-05-11T09:07:23.018Z,43.44
2023-05-11T09:09:51.764Z,44.11
2023-05-11T09:12:21.629Z,44.08
2023-05-11T09:14:50.534Z,42.88
2023-05-11T09:17:19.306Z,42.11
2023-05-11T09:20:05.971Z,43.18
2023-05-11T09:22:36.556Z,41.67
2023-05-11T09:25:06.811Z,43.82
2023-05-11T09:27:41.891Z,41.62
2023-05-11T09:30:21.998Z,41.96
2023-05-11T09:32:53.572Z,41.17
2023-05-11T09:35:26.512Z,39.76
2023-05-11T09:38:07.870Z,39.62
2023-05-11T09:40:39.881Z,40.96
2023-05-11T09:43:19.030Z,38.74
2023-05-11T09:45:49.882Z,40.45
2023-05-11T09:48:32.919Z,38.60
2023-05-11T09:51:06.496Z,38.66
2023-05-11T09:53:43.306Z,38.24
2023-05-11T09:56:13.931Z,37.86
2023-05-11T09:58:53.267Z,39.10
2023-05-11T10:01:32.513Z,38.21
2023-05-11T10:04:21.117Z,38.44
2023-05-11T10:06:54.928Z,38.01
2023-05-11T10:09:26.215Z,39.01
2023-05-11T10:11:56.637Z,38.02
2023-05-11T10:14:29.445Z,36.40
2023-05-11T10:17:03.051Z,37.04
2023-05-11T10:19:32.970Z,37.81
2023-05-11T10:22:06.181Z,36.91
2023-05-11T10:24:35.500Z,36.47
2023-05-11T10:27:05.080Z,37.09
2023-05-11T10:29:35.232Z,35.24
2023-05-11T10:32:05.938Z,36.94
2023-05-11T10:35:25.969Z,33.55
2023-05-11T10:38:05.940Z,33.87
2023-05-11T10:40:42.340Z,33.37
2023-05-11T10:43:47.622Z,33.94
2023-05-11T10:46:42.815Z,35.59
2023-05-11T10:49:38.627Z,34.53
2023-05-11T10:52:30.158Z,35.63
2023-05-11T10:55:14.667Z,34.86
2023-05-11T10:58:10.494Z,34.81
2023-05-11T11:01:37.866Z,35.72
2023-05-11T11:04:10.059Z,36.51
2023-05-11T11:06:41.735Z,37.74
2023-05-11T11:09:15.901Z,37.68
2023-05-11T11:11:50.289Z,37.58
2023-05-11T11:14:20.091Z,36.00
2023-05-11T11:17:27.384Z,35.28
2023-05-11T11:19:57.439Z,36.68
2023-05-11T11:22:47.618Z,37.39
2023-05-11T11:25:53.830Z,38.01
2023-05-11T11:28:24.795Z,36.12
2023-05-11T11:31:28.980Z,35.11
2023-05-11T11:34:01.101Z,34.28
2023-05-11T11:37:08.729Z,33.92
2023-05-11T11:40:09.522Z,34.11
2023-05-11T11:42:44.777Z,32.59
2023-05-11T11:45:40.028Z,33.86
2023-05-11T11:48:18.095Z,34.29
2023-05-11T11:50:49.197Z,32.84
2023-05-11T11:54:07.191Z,32.90
2023-05-11T11:56:46.990Z,30.76
2023-05-11T11:59:17.013Z,32.61
2023-05-11T12:01:54.737Z,29.86
2023-05-11T12:04:57.181Z,29.43
2023-05-11T12:07:28.625Z,29.46
2023-05-11T12:09:57.850Z,31.20
2023-05-11T12:12:28.384Z,29.28
2023-05-11T12:14:57.928Z,29.44
2023-05-11T12:17:30.956Z,30.97
2023-05-11T12:20:15.121Z,30.11
2023-05-11T12:22:44.776Z,31.76
2023-05-11T12:25:15.988Z,29.48
2023-05-11T12:27:55.437Z,31.08
2023-05-11T12:30:26.580Z,30.65
2023-05-11T12:32:57.882Z,29.20
2023-05-11T12:35:29.459Z,30.69
2023-05-11T12:38:00.960Z,30.02
2023-05-11T12:40:30.050Z,29.26
2023-05-11T12:43:01.685Z,30.74
2023-05-11T12:45:30.928Z,30.77
2023-05-11T12:48:02.133Z,31.70
2023-05-11T12:50:31.283Z,32.71
2023-05-11T12:53:15.866Z,33.30
2023-05-11T12:55:45.619Z,32.62
2023-05-11T12:58:18.652Z,32.71
2023-05-11T13:00:55.196Z,33.22
2023-05-11T13:03:27.526Z,32.57
2023-05-11T13:06:08.087Z,33.41
2023-05-11T13:08:38.885Z,33.84
2023-05-11T13:11:22.503Z,34.61
2023-05-11T13:13:51.911Z,34.52
2023-05-11T13:16:30.502Z,34.82
2023-05-11T13:19:08.313Z,34.70
2023-05-11T13:21:38.520Z,34.78
2023-05-11T13:24:09.470Z,35.11
2023-05-11T13:26:38.376Z,34.54
2023-05-11T13:29:11.173Z,34.84
2023-05-11T13:31:47.165Z,34.52
2023-05-11T13:34:18.636Z,34.62
2023-05-11T13:36:47.991Z,35.17
2023-05-11T13:39:16.856Z,34.91
2023-05-11T13:41:46.238Z,33.37
2023-05-11T13:44:14.963Z,33.97
2023-05-11T13:46:43.604Z,35.11
2023-05-11T13:49:12.465Z,33.94
2023-05-11T13:51:42.833Z,32.87
2023-05-11T13:54:13.551Z,32.38
2023-05-11T13:56:42.331Z,33.23
2023-05-11T13:59:11.211Z,31.87
2023-05-11T14:01:39.970Z,33.56
2023-05-11T14:04:08.665Z,31.99
2023-05-11T14:06:38.170Z,32.68
2023-05-11T14:09:08.344Z,31.77
2023-05-11T14:11:39.313Z,31.44
2023-05-11T14:14:08.548Z,31.34
2023-05-11T14:16:37.946Z,31.62
2023-05-11T14:19:06.779Z,32.23
2023-05-11T14:21:35.827Z,31.81
2023-05-11T14:24:14.067Z,32.64
2023-05-11T14:26:44.380Z,32.79
2023-05-11T14:29:13.090Z,30.95
2023-05-11T14:31:42.789Z,31.75
2023-05-11T14:34:12.491Z,30.41
2023-05-11T14:36:42.073Z,30.37
2023-05-11T14:39:11.735Z,29.54
2023-05-11T14:41:41.344Z,29.81
2023-05-11T14:44:12.924Z,28.63
2023-05-11T14:46:41.876Z,28.37
2023-05-11T14:49:10.829Z,28.71
2023-05-11T14:51:40.044Z,28.97
2023-05-11T14:54:08.824Z,29.61
2023-05-11T14:56:37.449Z,30.77
2023-05-11T14:59:06.288Z,30.13
2023-05-11T15:01:36.413Z,29.45
2023-05-11T15:04:05.376Z,30.88
2023-05-11T15:06:34.229Z,29.61
2023-05-11T15:09:03.118Z,30.28
2023-05-11T15:11:31.807Z,31.27
2023-05-11T15:14:01.103Z,30.04
2023-05-11T15:16:29.961Z,30.86
2023-05-11T15:19:00.654Z,29.68
2023-05-11T15:21:29.660Z,29.43
2023-05-11T15:23:58.365Z,29.18
2023-05-11T15:26:27.387Z,29.11
2023-05-11T15:28:56.167Z,30.03
2023-05-11T15:31:24.895Z,29.35
2023-05-11T15:33:53.781Z,27.99
2023-05-11T15:36:23.975Z,29.09
2023-05-11T15:38:52.894Z,28.38
2023-05-11T15:41:22.159Z,29.79
2023-05-11T15:43:50.846Z,28.94
2023-05-11T15:46:19.631Z,30.06
2023-05-11T15:48:48.502Z,29.50
2023-05-11T15:51:17.319Z,31.07
2023-05-11T15:53:47.415Z,30.24
2023-05-11T15:56:16.060Z,30.02
2023-05-11T15:58:44.730Z,30.39
2023-05-11T16:01:13.459Z,30.74
2023-05-11T16:03:42.346Z,31.52
2023-05-11T16:06:11.342Z,31.30
2023-05-11T16:08:40.249Z,31.50
2023-05-11T16:11:10.357Z,31.64
2023-05-11T16:13:39.663Z,30.87
2023-05-11T16:16:09.104Z,31.95
2023-05-11T16:18:39.235Z,31.24
2023-05-11T16:21:08.474Z,31.10
2023-05-11T16:23:37.393Z,31.50
2023-05-11T16:26:06.220Z,31.95
2023-05-11T16:28:36.856Z,31.33
2023-05-11T16:31:05.863Z,31.60
2023-05-11T16:33:34.963Z,31.39
2023-05-11T16:36:04.087Z,32.23
2023-05-11T16:38:33.150Z,32.50
2023-05-11T16:41:02.314Z,32.90
2023-05-11T16:43:32.492Z,32.51
2023-05-11T16:46:03.684Z,32.13
2023-05-11T16:48:33.027Z,33.67
2023-05-11T16:51:05.609Z,33.61
2023-05-11T16:53:34.512Z,32.59
2023-05-11T16:56:07.680Z,33.35
2023-05-11T16:58:40.843Z,33.44
2023-05-11T17:01:12.973Z,35.17
2023-05-11T17:03:44.269Z,35.35
2023-05-11T17:06:14.741Z,34.63
2023-05-11T17:08:43.485Z,35.55
2023-05-11T17:11:12.578Z,34.01
2023-05-11T17:13:41.348Z,35.88
2023-05-11T17:16:11.681Z,36.06
2023-05-11T17:18:41.484Z,34.60
2023-05-11T17:21:11.158Z,36.21
2023-05-11T17:23:41.026Z,34.08
2023-05-11T17:26:11.527Z,33.91
2023-05-11T17:28:40.708Z,34.53
2023-05-11T17:31:13.249Z,35.01
2023-05-11T17:33:43.446Z,34.38
2023-05-11T17:36:12.960Z,35.45
2023-05-11T17:38:42.781Z,34.47
2023-05-11T17:41:11.531Z,35.63
2023-05-11T17:43:41.377Z,36.32
2023-05-11T17:46:13.640Z,34.23
2023-05-11T17:48:42.781Z,35.25
2023-05-11T17:51:12.545Z,34.13
2023-05-11T17:53:42.009Z,36.95
2023-05-11T17:56:11.952Z,36.76
2023-05-11T17:58:43.149Z,36.66
2023-05-11T18:01:14.637Z,37.17
2023-05-11T18:03:43.878Z,38.23
2023-05-11T18:06:13.085Z,39.18
2023-05-11T18:08:41.925Z,39.33
2023-05-11T18:11:11.309Z,39.58
2023-05-11T18:13:40.288Z,40.93
2023-05-11T18:16:10.187Z,41.59
2023-05-11T18:18:42.378Z,41.27
2023-05-11T18:21:11.735Z,40.05
2023-05-11T18:23:40.468Z,40.47
2023-05-11T18:26:09.233Z,40.20
2023-05-11T18:28:38.179Z,40.93
2023-05-11T18:31:06.879Z,41.15
2023-05-11T18:33:35.526Z,40.75
2023-05-11T18:36:06.666Z,41.37
2023-05-11T18:38:35.581Z,41.61
2023-05-11T18:41:06.374Z,42.65
2023-05-11T18:43:35.298Z,43.20
2023-05-11T18:46:09.297Z,43.12
2023-05-11T18:48:39.092Z,43.27
2023-05-11T18:51:09.341Z,44.57
2023-05-11T18:53:38.103Z,44.56
2023-05-11T18:56:07.115Z,45.08
2023-05-11T18:58:36.124Z,45.06
2023-05-11T19:01:05.450Z,45.93
2023-05-11T19:03:34.548Z,46.06
2023-05-11T19:06:03.541Z,46.13
2023-05-11T19:08:33.513Z,45.29
2023-05-11T19:11:08.051Z,46.94
2023-05-11T19:13:38.437Z,46.33
2023-05-11T19:16:07.678Z,47.20
2023-05-11T19:18:37.183Z,46.76
2023-05-11T19:21:06.046Z,48.05
2023-05-11T19:23:36.341Z,48.02
2023-05-11T19:26:05.156Z,48.35
2023-05-11T19:28:34.055Z,48.84
2023-05-11T19:31:17.119Z,49.14
2023-05-11T19:33:45.932Z,49.78
2023-05-11T19:36:14.741Z,50.19
2023-05-11T19:38:44.840Z,48.85
2023-05-11T19:41:13.596Z,49.73
2023-05-11T19:43:42.371Z,49.16
2023-05-11T19:46:11.202Z,50.20
2023-05-11T19:48:40.153Z,50.28
2023-05-11T19:51:08.878Z,50.05
2023-05-11T19:53:37.718Z,50.07
2023-05-11T19:56:08.684Z,50.74
2023-05-11T19:58:37.407Z,50.78
2023-05-11T20:01:06.467Z,50.39
2023-05-11T20:03:35.397Z,50.32
2023-05-11T20:06:04.304Z,51.56
2023-05-11T20:08:33.045Z,51.24
2023-05-11T20:11:02.372Z,51.47
2023-05-11T20:13:32.607Z,51.42
2023-05-11T20:16:01.525Z,52.09
2023-05-11T20:18:30.637Z,52.62
2023-05-11T20:20:59.389Z,53.03
2023-05-11T20:23:28.492Z,53.29
2023-05-11T20:25:57.245Z,53.16
2023-05-11T20:28:27.353Z,52.82
2023-05-11T20:30:58.046Z,53.88
2023-05-11T20:35:59.088Z,53.67
2023-05-11T20:38:27.864Z,53.48
2023-05-11T20:40:59.009Z,53.71
2023-05-11T20:43:28.008Z,54.12
2023-05-11T20:46:03.661Z,54.17
2023-05-11T20:48:40.567Z,53.66
2023-05-11T20:51:10.203Z,53.87
2023-05-11T20:53:39.118Z,54.59
2023-05-11T20:56:10.150Z,55.03
2023-05-11T20:58:39.280Z,55.07
2023-05-11T21:01:09.628Z,55.20
2023-05-11T21:03:38.427Z,55.99
2023-05-11T21:06:08.779Z,56.59
2023-05-11T21:08:57.400Z,57.23
2023-05-11T21:11:26.248Z,57.06
2023-05-11T21:14:08.229Z,57.13
2023-05-11T21:16:38.571Z,57.29
2023-05-11T21:19:08.177Z,58.44
2023-05-11T21:21:36.950Z,57.55
2023-05-11T21:24:06.308Z,58.36
2023-05-11T21:26:35.152Z,57.80
2023-05-11T21:29:03.913Z,57.19
2023-05-11T21:31:32.745Z,57.96
2023-05-11T21:34:02.960Z,58.13
2023-05-11T21:36:31.720Z,57.99
2023-05-11T21:39:00.418Z,57.98
2023-05-11T21:41:29.294Z,58.82
2023-05-11T21:43:58.052Z,58.74
2023-05-11T21:46:26.961Z,58.79
2023-05-11T21:48:55.736Z,58.64
2023-05-11T21:51:25.901Z,58.43
2023-05-11T21:53:54.671Z,58.90
2023-05-11T21:56:23.470Z,58.62
2023-05-11T21:58:54.230Z,58.95
2023-05-11T22:01:23.024Z,59.70
2023-05-11T22:03:51.859Z,59.63
2023-05-11T22:06:20.530Z,59.57
2023-05-11T22:08:50.772Z,59.64
2023-05-11T22:11:21.649Z,59.80
2023-05-11T22:13:51.171Z,59.90
2023-05-11T22:16:20.272Z,60.71
2023-05-11T22:18:49.089Z,60.15
2023-05-11T22:21:17.806Z,60.02
2023-05-11T22:23:46.550Z,60.64
2023-05-11T22:26:16.730Z,61.14
2023-05-11T22:28:45.582Z,61.15
2023-05-11T22:31:14.290Z,60.83
2023-05-11T22:33:43.038Z,61.21
2023-05-11T22:36:13.150Z,61.30
2023-05-11T22:38:42.071Z,62.17
2023-05-11T22:41:10.900Z,62.60
2023-05-11T22:43:41.038Z,62.44
2023-05-11T22:46:10.271Z,61.89
2023-05-11T22:48:39.053Z,62.31
2023-05-11T22:51:07.776Z,62.04
2023-05-11T22:53:36.510Z,61.81
2023-05-11T22:56:06.426Z,62.33
2023-05-11T22:58:35.399Z,62.40
2023-05-11T23:01:05.831Z,62.12
2023-05-11T23:03:34.690Z,61.88
2023-05-11T23:06:03.384Z,61.78
2023-05-11T23:08:32.376Z,62.04
2023-05-11T23:11:01.204Z,61.86
2023-05-11T23:13:29.984Z,62.48
2023-05-11T23:15:59.769Z,63.40
2023-05-11T23:18:30.054Z,64.12
2023-05-11T23:20:59.335Z,63.91
2023-05-11T23:23:28.844Z,63.18
2023-05-11T23:25:57.531Z,63.39
2023-05-11T23:28:26.360Z,64.17
2023-05-11T23:30:55.072Z,64.30
2023-05-11T23:33:23.885Z,63.99
2023-05-11T23:35:54.845Z,63.46
2023-05-11T23:38:23.585Z,63.64
2023-05-11T23:40:52.526Z,62.98
2023-05-11T23:43:22.125Z,63.64
2023-05-11T23:45:52.230Z,64.47
2023-05-11T23:48:23.089Z,64.61
2023-05-11T23:50:53.297Z,64.12
2023-05-11T23:53:22.014Z,64.02
2023-05-11T23:55:50.918Z,64.41
2023-05-11T23:58:19.642Z,64.21
